Time;durP1;ratioP1;P1;durP2;ratioP2;P2;SDS_P1;SDS_P2;PMS_P1;PMS_P2;Temp;Humidity;BMP_temperature;BMP_pressure;BME280_temperature;BME280_humidity;BME280_pressure;Samples;Min_cycle;Max_cycle;Signal;HPM_P1;HPM_P2
2022/09/20 00:00:47;;;;;;;2.95;1.27;;;6.60;99.90;;;;;;5051380;28;20410;-58
2022/09/20 00:03:14;;;;;;;2.83;1.55;;;6.60;99.90;;;;;;5051415;28;20052;-59
2022/09/20 00:05:44;;;;;;;2.38;1.17;;;6.60;99.90;;;;;;5049394;28;20563;-58
2022/09/20 00:08:13;;;;;;;4.00;1.48;;;6.60;99.90;;;;;;5045493;28;20149;-59
2022/09/20 00:10:41;;;;;;;1.98;1.25;;;6.50;99.90;;;;;;5051014;28;20587;-59
2022/09/20 00:13:11;;;;;;;2.72;1.17;;;6.50;99.90;;;;;;5051923;28;20091;-57
2022/09/20 00:15:43;;;;;;;5.00;1.67;;;6.50;99.90;;;;;;5049627;28;20735;-58
2022/09/20 00:18:11;;;;;;;5.47;1.92;;;6.50;99.90;;;;;;5047277;28;20092;-59
2022/09/20 00:20:45;;;;;;;5.85;1.70;;;6.40;99.90;;;;;;5050849;28;20055;-57
2022/09/20 00:23:12;;;;;;;5.57;1.60;;;6.40;99.90;;;;;;5056651;28;20049;-58
2022/09/20 00:25:39;;;;;;;3.03;1.48;;;6.40;99.90;;;;;;5050884;28;20658;-59
2022/09/20 00:28:07;;;;;;;2.75;1.52;;;6.40;99.90;;;;;;5044988;28;20074;-58
2022/09/20 00:30:34;;;;;;;4.90;1.63;;;6.40;99.90;;;;;;5051494;28;20127;-58
2022/09/20 00:33:01;;;;;;;5.20;1.40;;;6.40;99.90;;;;;;5043217;28;20098;-58
2022/09/20 00:35:29;;;;;;;3.15;1.23;;;6.40;99.90;;;;;;5052336;28;20119;-58
2022/09/20 00:37:56;;;;;;;12.93;2.15;;;6.30;99.90;;;;;;5050203;28;20107;-57
2022/09/20 00:40:25;;;;;;;5.60;1.88;;;6.40;99.90;;;;;;5048490;28;20590;-59
2022/09/20 00:42:53;;;;;;;5.43;1.48;;;6.40;99.90;;;;;;5052176;28;20044;-59
2022/09/20 00:45:25;;;;;;;2.58;1.52;;;6.30;99.90;;;;;;5051559;28;20801;-59
2022/09/20 00:48:01;;;;;;;2.45;1.58;;;6.30;99.90;;;;;;5051152;28;20045;-58
2022/09/20 00:50:46;;;;;;;3.95;1.50;;;6.30;99.90;;;;;;5049666;28;20045;-57
2022/09/20 00:53:25;;;;;;;3.75;1.45;;;6.30;99.90;;;;;;5051670;28;20089;-59
2022/09/20 00:56:08;;;;;;;8.23;1.60;;;6.30;99.90;;;;;;5050918;28;20464;-59
2022/09/20 00:58:40;;;;;;;5.78;1.48;;;6.40;99.90;;;;;;5045169;28;20056;-58
2022/09/20 01:01:06;;;;;;;4.72;1.63;;;6.40;99.90;;;;;;5047596;28;20846;-58
2022/09/20 01:03:37;;;;;;;2.45;1.30;;;6.30;99.90;;;;;;5050126;28;20051;-58
2022/09/20 01:06:09;;;;;;;2.97;1.23;;;6.30;99.90;;;;;;5050394;28;20704;-58
2022/09/20 01:08:38;;;;;;;8.52;1.42;;;6.40;99.90;;;;;;5048569;28;20565;-59
2022/09/20 01:11:05;;;;;;;3.28;1.30;;;6.40;99.90;;;;;;5049476;28;20090;-59
2022/09/20 01:13:32;;;;;;;3.00;1.20;;;6.40;99.90;;;;;;5051448;28;20036;-58
2022/09/20 01:16:01;;;;;;;4.72;1.80;;;6.40;99.90;;;;;;5051504;28;20051;-59
2022/09/20 01:18:30;;;;;;;1.95;1.10;;;6.40;99.90;;;;;;5050861;28;20047;-58
2022/09/20 01:20:58;;;;;;;8.30;1.63;;;6.40;99.90;;;;;;5050155;28;20853;-59
2022/09/20 01:23:34;;;;;;;3.72;1.38;;;6.30;99.90;;;;;;5047591;28;20037;-59
2022/09/20 01:26:27;;;;;;;5.65;1.33;;;6.30;99.90;;;;;;5049678;28;20047;-58
2022/09/20 01:29:05;;;;;;;7.22;1.85;;;6.30;99.90;;;;;;5052209;28;20052;-58
2022/09/20 01:31:35;;;;;;;9.52;1.80;;;6.20;99.90;;;;;;5050028;28;20120;-58
2022/09/20 01:34:13;;;;;;;2.38;1.30;;;6.20;99.90;;;;;;5048798;28;20045;-58
2022/09/20 01:37:04;;;;;;;3.65;1.30;;;6.10;99.90;;;;;;5049433;28;20558;-60
2022/09/20 01:40:10;;;;;;;4.18;1.83;;;6.00;99.90;;;;;;5049897;28;20098;-59
2022/09/20 01:42:44;;;;;;;8.35;1.40;;;6.00;99.90;;;;;;5048732;28;20051;-59
2022/09/20 01:45:27;;;;;;;3.85;1.45;;;6.00;99.90;;;;;;5047591;28;20040;-59
2022/09/20 01:48:32;;;;;;;4.70;1.40;;;6.00;99.90;;;;;;5050484;28;20040;-59
2022/09/20 01:51:20;;;;;;;3.95;1.60;;;6.00;99.90;;;;;;5042868;28;20702;-58
2022/09/20 01:54:02;;;;;;;3.50;1.05;;;6.00;99.90;;;;;;5047376;28;20116;-59
2022/09/20 01:56:35;;;;;;;2.85;1.50;;;6.00;99.90;;;;;;5049958;28;20044;-59
2022/09/20 01:59:21;;;;;;;1.73;1.35;;;5.90;99.90;;;;;;5047253;28;20120;-59
2022/09/20 02:01:53;;;;;;;2.92;1.23;;;5.90;99.90;;;;;;5049320;28;20749;-58
2022/09/20 02:04:39;;;;;;;2.22;1.50;;;5.90;99.90;;;;;;5047691;28;20102;-59
2022/09/20 02:07:14;;;;;;;7.63;2.42;;;5.90;99.90;;;;;;5046803;28;20495;-59
2022/09/20 02:10:06;;;;;;;5.15;1.63;;;5.90;99.90;;;;;;5050767;28;20106;-58
2022/09/20 02:12:52;;;;;;;5.88;2.10;;;5.90;99.90;;;;;;5058645;28;20084;-59
2022/09/20 02:15:40;;;;;;;5.68;1.70;;;5.90;99.90;;;;;;5051363;28;20048;-59
2022/09/20 02:18:41;;;;;;;8.10;1.80;;;5.80;99.90;;;;;;5049404;28;20041;-56
2022/09/20 02:21:33;;;;;;;2.92;1.05;;;5.80;99.90;;;;;;5046458;28;20123;-59
2022/09/20 02:24:28;;;;;;;2.83;1.33;;;5.70;99.90;;;;;;5049195;28;20041;-59
2022/09/20 02:27:25;;;;;;;4.18;0.98;;;5.70;99.90;;;;;;5052163;28;20048;-60
2022/09/20 02:29:58;;;;;;;7.47;1.60;;;5.70;99.90;;;;;;5047956;28;20045;-58
2022/09/20 02:32:36;;;;;;;1.75;1.45;;;5.80;99.90;;;;;;5044579;28;20048;-59
2022/09/20 02:35:39;;;;;;;2.67;1.48;;;5.70;99.90;;;;;;5053609;28;20556;-60
2022/09/20 02:38:36;;;;;;;1.10;0.80;;;5.70;99.90;;;;;;5049177;28;20129;-59
2022/09/20 02:41:13;;;;;;;1.73;1.20;;;5.70;99.90;;;;;;5050830;28;20596;-56
2022/09/20 02:43:44;;;;;;;2.97;1.08;;;5.60;99.90;;;;;;5047219;28;20492;-59
2022/09/20 02:46:27;;;;;;;1.63;1.30;;;5.60;99.90;;;;;;5048045;28;20480;-59
2022/09/20 02:49:13;;;;;;;4.57;1.23;;;5.60;99.90;;;;;;5048706;28;20051;-58
2022/09/20 02:51:50;;;;;;;3.72;0.90;;;5.60;99.90;;;;;;5046051;28;20051;-58
2022/09/20 02:54:36;;;;;;;;;;;5.60;99.90;;;;;;5046335;28;20082;-57
2022/09/20 02:57:24;;;;;;;2.25;0.88;;;5.60;99.90;;;;;;5049556;28;20024;-59
2022/09/20 03:00:35;;;;;;;2.55;0.80;;;5.60;99.90;;;;;;5049319;28;20041;-57
2022/09/20 03:03:47;;;;;;;6.05;1.25;;;5.50;99.90;;;;;;5031295;28;20056;-58
2022/09/20 03:06:32;;;;;;;2.53;1.17;;;5.50;99.90;;;;;;5051111;28;20059;-58
2022/09/20 03:09:26;;;;;;;2.08;1.27;;;5.50;99.90;;;;;;5052808;28;20135;-59
2022/09/20 03:12:22;;;;;;;3.65;1.05;;;5.40;99.90;;;;;;5052950;28;20049;-58
2022/09/20 03:15:15;;;;;;;2.42;1.00;;;5.40;99.90;;;;;;5049664;28;20169;-57
2022/09/20 03:17:47;;;;;;;3.95;1.35;;;5.40;99.90;;;;;;5046896;28;20130;-57
2022/09/20 03:20:33;;;;;;;3.58;1.92;;;5.40;99.90;;;;;;5056178;28;20090;-58
2022/09/20 03:23:29;;;;;;;4.05;1.52;;;5.30;99.90;;;;;;5060855;28;20059;-57
2022/09/20 03:26:17;;;;;;;6.68;1.33;;;5.30;99.90;;;;;;5053346;28;20132;-58
2022/09/20 03:29:10;;;;;;;4.15;1.48;;;5.30;99.90;;;;;;5053159;28;20107;-58
2022/09/20 03:32:14;;;;;;;8.25;1.77;;;5.30;99.90;;;;;;5043678;28;20068;-59
2022/09/20 03:35:02;;;;;;;7.07;1.55;;;5.30;99.90;;;;;;5052851;28;20045;-58
2022/09/20 03:38:04;;;;;;;6.43;1.10;;;5.30;99.90;;;;;;5052671;28;20044;-58
2022/09/20 03:40:49;;;;;;;2.58;1.30;;;5.30;99.90;;;;;;5047044;28;20124;-58
2022/09/20 03:43:48;;;;;;;4.93;1.20;;;5.20;99.90;;;;;;5046278;28;20040;-58
2022/09/20 03:46:25;;;;;;;4.25;1.63;;;5.20;99.90;;;;;;5040960;28;20085;-58
2022/09/20 03:49:03;;;;;;;4.53;1.38;;;5.20;99.90;;;;;;5050405;28;20151;-59
2022/09/20 03:52:08;;;;;;;4.40;1.30;;;5.20;99.90;;;;;;5056227;28;20053;-58
2022/09/20 03:54:47;;;;;;;2.40;1.58;;;5.20;99.90;;;;;;5044097;28;20147;-58
2022/09/20 03:57:47;;;;;;;1.88;1.00;;;5.20;99.90;;;;;;5051161;28;20051;-58
2022/09/20 04:00:37;;;;;;;5.85;1.60;;;5.10;99.90;;;;;;5051665;28;20120;-58
2022/09/20 04:03:25;;;;;;;5.82;1.23;;;5.10;99.90;;;;;;5050242;28;20116;-58
2022/09/20 04:06:09;;;;;;;2.05;1.40;;;5.10;99.90;;;;;;5048033;28;20048;-58
2022/09/20 04:09:03;;;;;;;2.47;1.30;;;5.10;99.90;;;;;;5051391;28;20140;-59
2022/09/20 04:12:12;;;;;;;3.35;1.40;;;5.10;99.90;;;;;;5049155;28;20041;-58
2022/09/20 04:15:11;;;;;;;3.28;1.15;;;5.10;99.90;;;;;;5051945;28;20040;-59
2022/09/20 04:18:09;;;;;;;7.15;1.70;;;5.00;99.90;;;;;;5048383;28;20103;-59
2022/09/20 04:20:45;;;;;;;5.82;1.40;;;5.00;99.90;;;;;;5066922;28;20056;-58
2022/09/20 04:23:33;;;;;;;4.10;1.40;;;5.00;99.90;;;;;;5046654;28;20127;-58
2022/09/20 04:26:01;;;;;;;2.70;1.52;;;5.00;99.90;;;;;;5047870;28;20040;-61
2022/09/20 04:28:47;;;;;;;5.82;1.60;;;5.00;99.90;;;;;;5046252;28;20045;-59
2022/09/20 04:31:36;;;;;;;4.80;1.75;;;5.00;99.90;;;;;;5050157;28;20044;-58
2022/09/20 04:34:12;;;;;;;2.13;1.55;;;5.00;99.90;;;;;;5052345;28;20056;-61
2022/09/20 04:37:05;;;;;;;1.48;1.33;;;5.00;99.90;;;;;;5050298;28;20052;-57
2022/09/20 04:39:46;;;;;;;3.83;1.38;;;5.00;99.90;;;;;;5050563;28;20048;-58
2022/09/20 04:42:34;;;;;;;4.13;1.75;;;5.00;99.90;;;;;;5048515;28;20068;-57
2022/09/20 04:45:16;;;;;;;4.10;1.92;;;5.00;99.90;;;;;;5046983;28;20041;-59
2022/09/20 04:48:17;;;;;;;3.63;1.75;;;5.00;99.90;;;;;;5051284;28;20407;-58
2022/09/20 04:51:15;;;;;;;6.50;2.20;;;4.90;99.90;;;;;;5042887;28;20118;-58
2022/09/20 04:54:11;;;;;;;4.95;1.38;;;4.90;99.90;;;;;;5054394;28;20072;-57
2022/09/20 04:56:41;;;;;;;5.85;2.03;;;4.90;99.90;;;;;;5057198;28;20110;-57
2022/09/20 04:59:13;;;;;;;3.78;1.58;;;4.90;99.90;;;;;;5058770;28;20041;-57
2022/09/20 05:02:14;;;;;;;3.83;1.50;;;4.90;99.90;;;;;;5047840;28;20052;-58
2022/09/20 05:04:50;;;;;;;1.92;1.50;;;4.90;99.90;;;;;;5049631;28;20091;-58
2022/09/20 05:07:39;;;;;;;6.53;1.90;;;4.90;99.90;;;;;;5045126;28;20044;-58
2022/09/20 05:10:13;;;;;;;2.88;1.67;;;4.90;99.90;;;;;;5050156;28;20052;-58
2022/09/20 05:13:04;;;;;;;1.05;1.00;;;4.90;99.90;;;;;;5051306;28;20082;-58
2022/09/20 05:15:44;;;;;;;3.10;1.30;;;4.90;99.90;;;;;;5048558;28;20061;-59
2022/09/20 05:18:46;;;;;;;1.83;1.10;;;4.90;99.90;;;;;;5050490;28;20049;-58
2022/09/20 05:21:23;;;;;;;4.78;1.73;;;5.00;99.90;;;;;;5043050;28;20491;-58
2022/09/20 05:24:18;;;;;;;4.03;1.80;;;5.00;99.90;;;;;;5050278;28;20136;-59
2022/09/20 05:27:06;;;;;;;3.38;1.58;;;5.00;99.90;;;;;;5047824;28;20459;-60
2022/09/20 05:29:56;;;;;;;3.38;1.60;;;5.00;99.90;;;;;;5052495;28;20136;-60
2022/09/20 05:33:00;;;;;;;4.00;1.73;;;5.10;99.90;;;;;;5047603;28;20045;-59
2022/09/20 05:35:42;;;;;;;1.83;1.20;;;5.10;99.90;;;;;;5055807;28;20056;-59
2022/09/20 05:38:39;;;;;;;2.47;1.35;;;5.10;99.90;;;;;;5048379;28;20036;-58
2022/09/20 05:41:16;;;;;;;5.05;1.45;;;5.20;99.90;;;;;;5046057;28;20564;-56
2022/09/20 05:44:07;;;;;;;2.92;1.60;;;5.20;99.90;;;;;;5053897;28;20068;-57
2022/09/20 05:46:46;;;;;;;3.10;1.38;;;5.20;99.90;;;;;;5047992;28;20169;-58
2022/09/20 05:49:29;;;;;;;4.70;1.80;;;5.30;99.90;;;;;;5045493;28;20044;-59
2022/09/20 05:52:23;;;;;;;1.70;1.17;;;5.30;99.90;;;;;;5050417;28;20136;-60
2022/09/20 05:55:25;;;;;;;3.60;1.38;;;5.40;99.90;;;;;;5046204;28;20158;-57
2022/09/20 05:58:00;;;;;;;2.30;1.40;;;5.40;99.90;;;;;;5048673;28;20163;-58
2022/09/20 06:00:45;;;;;;;2.28;1.48;;;5.40;99.90;;;;;;5040486;28;20534;-59
2022/09/20 06:03:29;;;;;;;7.95;2.45;;;5.50;99.90;;;;;;5045311;28;20045;-59
2022/09/20 06:06:23;;;;;;;4.45;1.63;;;5.60;99.90;;;;;;5051712;28;20060;-58
2022/09/20 06:09:17;;;;;;;6.47;1.80;;;5.80;99.90;;;;;;5044191;28;20055;-58
2022/09/20 06:12:02;;;;;;;2.95;2.53;;;6.00;99.90;;;;;;5049048;28;20060;-58
2022/09/20 06:15:01;;;;;;;6.22;2.40;;;6.10;99.90;;;;;;5051375;28;20114;-59
2022/09/20 06:17:42;;;;;;;2.95;1.67;;;6.30;99.90;;;;;;5044834;28;20418;-59
2022/09/20 06:20:18;;;;;;;3.15;2.15;;;6.50;99.90;;;;;;5046464;28;20040;-58
2022/09/20 06:22:49;;;;;;;2.65;1.90;;;6.60;99.90;;;;;;5046737;28;20044;-60
2022/09/20 06:25:22;;;;;;;6.00;2.47;;;6.80;99.90;;;;;;5046961;28;20727;-60
2022/09/20 06:27:54;;;;;;;8.23;2.95;;;6.90;99.90;;;;;;5047424;28;20053;-59
2022/09/20 06:30:32;;;;;;;3.65;2.17;;;7.10;99.90;;;;;;5045351;28;20151;-60
2022/09/20 06:33:12;;;;;;;8.73;3.00;;;7.30;99.90;;;;;;5049477;28;20571;-59
2022/09/20 06:35:42;;;;;;;5.78;2.13;;;7.50;99.90;;;;;;5051682;28;20774;-59
2022/09/20 06:43:48;;;;;;;4.13;2.72;;;8.30;99.90;;;;;;5048854;28;20049;-59
2022/09/20 06:46:16;;;;;;;12.68;2.90;;;8.70;99.90;;;;;;5054931;28;20082;-59
2022/09/20 06:48:42;;;;;;;6.10;2.35;;;9.10;99.90;;;;;;5052787;28;20044;-60
2022/09/20 06:51:09;;;;;;;9.65;2.10;;;9.40;99.90;;;;;;5053743;28;20051;-58
2022/09/20 06:53:39;;;;;;;5.53;2.20;;;9.70;99.90;;;;;;5052887;28;20053;-58
2022/09/20 06:56:16;;;;;;;8.30;2.33;;;9.80;99.90;;;;;;5054585;28;20637;-58
2022/09/20 06:58:42;;;;;;;5.97;2.17;;;10.00;99.90;;;;;;5052614;28;20132;-60
2022/09/20 07:01:09;;;;;;;;;;;10.10;99.90;;;;;;5050580;28;20037;-58
2022/09/20 07:03:36;;;;;;;7.63;2.72;;;10.20;99.90;;;;;;5060874;28;20019;-60
2022/09/20 07:06:03;;;;;;;;;;;10.30;99.90;;;;;;5050975;28;20048;-59
2022/09/20 07:08:30;;;;;;;2.95;2.10;;;10.40;99.90;;;;;;5052749;28;19989;-60
2022/09/20 07:11:01;;;;;;;;;;;10.40;99.90;;;;;;5059542;28;20049;-55
2022/09/20 07:13:28;;;;;;;5.93;1.80;;;10.50;99.90;;;;;;5056113;28;20031;-54
2022/09/20 07:16:06;;;;;;;6.50;2.22;;;10.60;99.90;;;;;;5052833;28;20103;-59
2022/09/20 07:18:33;;;;;;;2.75;1.50;;;10.70;99.90;;;;;;5044446;28;20419;-59
2022/09/20 07:21:00;;;;;;;7.07;1.92;;;11.10;99.90;;;;;;5054022;28;20055;-59
2022/09/20 07:23:28;;;;;;;8.95;2.55;;;11.60;99.90;;;;;;5053399;28;20051;-61
2022/09/20 07:25:59;;;;;;;3.80;2.35;;;12.10;99.90;;;;;;5052696;28;20127;-60
2022/09/20 07:28:28;;;;;;;6.85;2.15;;;12.50;99.90;;;;;;5052592;28;20663;-59
2022/09/20 07:30:55;;;;;;;5.15;2.03;;;12.90;99.90;;;;;;5051879;28;20078;-60
2022/09/20 07:33:23;;;;;;;2.88;1.85;;;13.30;99.90;;;;;;5051148;28;20049;-59
2022/09/20 07:35:54;;;;;;;3.83;1.90;;;13.70;99.90;;;;;;5046536;28;20869;-61
2022/09/20 07:38:21;;;;;;;6.43;2.13;;;13.90;99.90;;;;;;5049841;28;20171;-60
2022/09/20 07:41:00;;;;;;;5.00;2.17;;;14.20;99.90;;;;;;5053048;28;20071;-60
2022/09/20 07:43:28;;;;;;;8.27;2.17;;;14.40;99.90;;;;;;5052319;28;20127;-60
2022/09/20 07:45:56;;;;;;;8.05;2.55;;;14.50;99.90;;;;;;5051108;28;20543;-61
2022/09/20 07:48:34;;;;;;;5.18;2.63;;;14.70;99.90;;;;;;5048171;28;20056;-60
2022/09/20 07:51:04;;;;;;;2.78;2.10;;;14.90;99.90;;;;;;5050559;28;20037;-60
2022/09/20 07:53:35;;;;;;;6.10;2.42;;;15.20;99.90;;;;;;5050240;28;20821;-60
2022/09/20 07:56:09;;;;;;;7.45;3.15;;;15.50;99.90;;;;;;5051383;28;20739;-61
2022/09/20 07:58:36;;;;;;;4.28;2.08;;;15.70;99.90;;;;;;5052721;28;20132;-60
2022/09/20 08:01:06;;;;;;;4.80;1.88;;;15.90;99.90;;;;;;5051311;28;20089;-60
2022/09/20 08:03:34;;;;;;;8.48;2.17;;;16.20;99.90;;;;;;5051822;28;20044;-59
2022/09/20 08:06:06;;;;;;;4.63;1.70;;;16.40;99.90;;;;;;5059875;28;20554;-61
2022/09/20 08:08:36;;;;;;;6.00;2.03;;;16.40;96.20;;;;;;5045886;28;20049;-62
2022/09/20 08:11:06;;;;;;;4.60;1.77;;;16.50;99.40;;;;;;5003833;28;20757;-62
2022/09/20 08:13:38;;;;;;;11.88;2.25;;;16.60;93.80;;;;;;4998845;28;20210;-63
2022/09/20 08:16:26;;;;;;;9.25;1.98;;;16.80;90.30;;;;;;5004519;28;20052;-60
2022/09/20 08:18:59;;;;;;;11.68;1.98;;;16.90;92.50;;;;;;5018140;28;20094;-63
2022/09/20 08:21:30;;;;;;;3.78;1.10;;;17.10;93.10;;;;;;5002078;28;20048;-61
2022/09/20 08:23:58;;;;;;;10.77;1.60;;;17.20;92.00;;;;;;5004810;28;20106;-64
2022/09/20 08:26:27;;;;;;;3.20;1.10;;;17.20;92.60;;;;;;5004729;28;20099;-64
2022/09/20 08:28:56;;;;;;;2.55;1.27;;;17.20;94.20;;;;;;5003287;28;20754;-61
2022/09/20 08:31:35;;;;;;;8.25;1.45;;;17.30;92.60;;;;;;5002926;28;20110;-63
2022/09/20 08:34:08;;;;;;;13.73;1.73;;;17.40;87.10;;;;;;5007136;28;20134;-61
2022/09/20 08:36:40;;;;;;;10.68;1.85;;;17.30;91.20;;;;;;5001908;28;20075;-60
2022/09/20 08:39:08;;;;;;;8.15;1.48;;;17.10;88.70;;;;;;5002709;28;21132;-60
2022/09/20 08:42:10;;;;;;;8.20;1.75;;;16.90;94.10;;;;;;5004932;28;20258;-59
2022/09/20 08:44:55;;;;;;;8.68;2.25;;;16.80;93.10;;;;;;5007528;28;20147;-61
2022/09/20 08:47:31;;;;;;;7.00;2.27;;;16.70;94.00;;;;;;4998738;28;20370;-61
2022/09/20 08:50:02;;;;;;;6.32;2.03;;;16.70;94.70;;;;;;5031920;28;20465;-60
2022/09/20 08:52:37;;;;;;;8.00;2.03;;;16.60;83.90;;;;;;5053112;28;20114;-58
2022/09/20 08:55:16;;;;;;;7.20;1.60;;;16.40;91.50;;;;;;5049971;28;20040;-59
2022/09/20 08:57:48;;;;;;;8.00;1.60;;;16.30;92.30;;;;;;5050523;28;20136;-58
2022/09/20 09:00:19;;;;;;;8.55;1.95;;;16.00;97.60;;;;;;5050054;28;20041;-60
2022/09/20 09:02:50;;;;;;;4.97;1.70;;;15.80;98.70;;;;;;5010323;28;20036;-59
2022/09/20 09:05:47;;;;;;;6.90;1.83;;;15.40;99.90;;;;;;4997706;28;20044;-57
2022/09/20 09:08:27;;;;;;;7.65;1.65;;;15.00;99.90;;;;;;5002369;28;20808;-60
2022/09/20 09:11:07;;;;;;;5.78;1.40;;;14.70;99.90;;;;;;4997581;28;20115;-68
2022/09/20 09:13:52;;;;;;;8.57;1.83;;;14.60;99.90;;;;;;5003605;28;20225;-56
2022/09/20 09:16:23;;;;;;;7.00;2.42;;;14.50;99.90;;;;;;5001674;28;20423;-57
2022/09/20 09:19:43;;;;;;;10.15;2.33;;;14.70;99.90;;;;;;5012569;28;20233;-58
2022/09/20 09:22:10;;;;;;;5.93;1.60;;;15.20;99.90;;;;;;4990265;28;20355;-58
2022/09/20 09:24:37;;;;;;;7.65;1.30;;;15.60;97.30;;;;;;5005078;28;20554;-61
2022/09/20 09:27:08;;;;;;;8.55;1.25;;;15.80;91.70;;;;;;5003595;28;20809;-61
2022/09/20 09:29:47;;;;;;;4.32;1.20;;;16.00;84.50;;;;;;5004383;28;20052;-59
2022/09/20 09:32:30;;;;;;;6.22;1.23;;;16.30;80.70;;;;;;5002464;28;20149;-61
2022/09/20 09:35:22;;;;;;;9.85;1.33;;;16.80;82.00;;;;;;5002785;28;20048;-60
2022/09/20 09:38:22;;;;;;;3.72;1.20;;;17.20;71.60;;;;;;5002638;28;20585;-59
2022/09/20 09:41:01;;;;;;;2.22;0.60;;;17.50;71.50;;;;;;5008749;28;20112;-60
2022/09/20 09:43:34;;;;;;;6.82;1.08;;;17.90;65.40;;;;;;5003395;28;20338;-60
2022/09/20 09:46:25;;;;;;;6.15;2.13;;;18.20;63.00;;;;;;4990774;28;20151;-60
2022/09/20 09:49:11;;;;;;;11.38;1.98;;;18.30;68.80;;;;;;5002824;28;20097;-63
2022/09/20 09:51:42;;;;;;;5.85;1.63;;;17.90;68.40;;;;;;4998774;28;20041;-61
2022/09/20 09:54:16;;;;;;;8.43;1.58;;;17.60;68.30;;;;;;5001124;28;20305;-61
2022/09/20 09:57:10;;;;;;;6.60;1.52;;;17.30;74.50;;;;;;5001289;28;20594;-60
2022/09/20 10:00:05;;;;;;;4.88;1.58;;;17.00;77.80;;;;;;5004717;28;20036;-60
2022/09/20 10:02:47;;;;;;;6.60;2.15;;;16.60;83.60;;;;;;5002275;28;20056;-58
2022/09/20 10:05:27;;;;;;;12.15;1.95;;;16.30;87.00;;;;;;5000423;28;20047;-61
2022/09/20 10:08:14;;;;;;;9.48;2.90;;;15.90;93.70;;;;;;4998548;28;20046;-60
2022/09/20 10:10:51;;;;;;;8.82;2.97;;;15.50;99.90;;;;;;5002247;28;20068;-61
2022/09/20 10:13:25;;;;;;;9.10;2.42;;;15.10;99.90;;;;;;5047658;28;20049;-60
2022/09/20 10:16:09;;;;;;;9.68;3.17;;;14.70;99.90;;;;;;5047027;28;20127;-59
2022/09/20 10:18:48;;;;;;;9.27;3.00;;;14.50;99.90;;;;;;5045844;28;20080;-60
2022/09/20 10:21:40;;;;;;;7.60;3.33;;;14.40;99.90;;;;;;5043435;28;20827;-60
2022/09/20 10:24:42;;;;;;;6.60;2.70;;;14.50;99.90;;;;;;5048842;28;20496;-60
2022/09/20 10:27:33;;;;;;;4.95;3.00;;;14.60;99.90;;;;;;5047861;28;20566;-58
2022/09/20 10:30:11;;;;;;;8.68;2.80;;;15.20;99.90;;;;;;5049845;28;20094;-59
2022/09/20 10:32:38;;;;;;;7.97;3.25;;;15.70;99.90;;;;;;5049049;28;20079;-60
2022/09/20 10:35:23;;;;;;;7.55;2.70;;;16.10;99.90;;;;;;5053628;28;20048;-60
2022/09/20 10:38:10;;;;;;;9.52;2.97;;;16.70;99.90;;;;;;5040632;28;20049;-59
2022/09/20 10:44:18;;;;;;;5.78;2.15;;;17.10;99.90;;;;;;5050245;28;20068;-60
2022/09/20 10:47:02;;;;;;;12.27;2.70;;;16.90;99.90;;;;;;5051565;28;20040;-61
2022/09/20 10:49:39;;;;;;;10.05;3.08;;;16.60;99.90;;;;;;5043256;28;20285;-60
2022/09/20 10:52:15;;;;;;;8.57;2.40;;;16.40;99.90;;;;;;5055713;28;20048;-60
2022/09/20 10:54:51;;;;;;;6.95;1.70;;;16.10;99.90;;;;;;5047668;28;20108;-59
2022/09/20 10:57:54;;;;;;;8.73;3.42;;;15.90;99.90;;;;;;5050846;28;20064;-59
2022/09/20 11:00:23;;;;;;;8.48;2.78;;;15.60;99.90;;;;;;5048874;28;20041;-60
2022/09/20 11:03:10;;;;;;;6.22;2.05;;;15.60;99.90;;;;;;5053047;28;20052;-60
2022/09/20 11:05:38;;;;;;;6.45;2.63;;;15.50;99.90;;;;;;5047276;28;20135;-61
2022/09/20 11:08:14;;;;;;;6.93;2.70;;;15.40;99.90;;;;;;5049862;28;20075;-60
2022/09/20 11:10:49;;;;;;;8.32;2.30;;;15.20;99.90;;;;;;5045663;28;20706;-61
2022/09/20 11:13:26;;;;;;;6.22;2.58;;;15.10;99.90;;;;;;5047263;28;20080;-60
2022/09/20 11:15:58;;;;;;;7.93;2.33;;;15.30;99.90;;;;;;5051186;28;20050;-61
2022/09/20 11:18:45;;;;;;;10.50;2.35;;;15.70;99.90;;;;;;5051008;28;20127;-61
2022/09/20 11:21:37;;;;;;;10.38;2.28;;;16.30;99.90;;;;;;5046531;28;20628;-61
2022/09/20 11:24:08;;;;;;;9.68;2.40;;;16.90;99.90;;;;;;5053193;28;20472;-59
2022/09/20 11:26:48;;;;;;;5.18;2.10;;;17.40;99.90;;;;;;5055459;28;20067;-60
2022/09/20 11:29:36;;;;;;;5.47;2.00;;;17.60;98.50;;;;;;5050487;28;20111;-60
2022/09/20 11:32:14;;;;;;;15.57;2.65;;;17.60;94.30;;;;;;5050767;28;20025;-60
2022/09/20 11:35:02;;;;;;;8.77;2.80;;;17.40;91.90;;;;;;5050830;28;20036;-60
2022/09/20 11:37:36;;;;;;;9.52;1.92;;;17.00;93.70;;;;;;5049965;28;20071;-57
2022/09/20 11:40:18;;;;;;;5.50;1.67;;;16.50;93.60;;;;;;5052136;28;20123;-62
2022/09/20 11:42:46;;;;;;;7.63;2.45;;;16.20;97.80;;;;;;5048671;28;20056;-62
2022/09/20 11:45:12;;;;;;;7.30;1.88;;;15.90;99.20;;;;;;5052490;28;20063;-61
2022/09/20 11:47:50;;;;;;;;;;;15.70;99.90;;;;;;5051328;28;20414;-61
2022/09/20 11:50:55;;;;;;;11.35;2.88;;;15.40;99.90;;;;;;5052873;28;20469;-54
2022/09/20 11:53:47;;;;;;;10.70;2.13;;;15.20;99.90;;;;;;5053992;28;20428;-61
2022/09/20 11:56:20;;;;;;;8.38;1.92;;;15.20;99.90;;;;;;5045676;28;20040;-55
2022/09/20 11:58:53;;;;;;;7.60;2.30;;;15.30;99.90;;;;;;5056518;28;20051;-62
2022/09/20 12:01:31;;;;;;;4.90;2.30;;;15.40;99.90;;;;;;5048758;28;20509;-57
2022/09/20 12:04:05;;;;;;;4.80;2.00;;;15.40;97.60;;;;;;5043758;28;20087;-58
2022/09/20 12:07:18;;;;;;;5.22;2.00;;;15.30;97.70;;;;;;5038271;28;20052;-55
2022/09/20 12:10:01;;;;;;;7.38;2.47;;;15.30;99.70;;;;;;5025186;28;20505;-55
2022/09/20 12:12:36;;;;;;;8.77;2.13;;;15.30;99.90;;;;;;5063252;28;20040;-57
2022/09/20 12:15:26;;;;;;;2.50;1.58;;;15.20;97.30;;;;;;5042248;28;20041;-55
2022/09/20 12:17:56;;;;;;;7.35;1.95;;;15.20;95.60;;;;;;5047544;28;20578;-58
2022/09/20 12:20:35;;;;;;;4.85;1.55;;;15.20;98.00;;;;;;5048537;28;20055;-60
2022/09/20 12:23:36;;;;;;;5.57;1.50;;;15.20;95.90;;;;;;5043481;28;20043;-60
2022/09/20 12:26:21;;;;;;;5.60;1.45;;;15.20;94.20;;;;;;5046571;28;20036;-64
2022/09/20 12:29:00;;;;;;;2.80;1.20;;;15.20;97.00;;;;;;5014694;28;20282;-56
2022/09/20 12:31:31;;;;;;;6.75;1.60;;;15.20;95.40;;;;;;5034668;28;20057;-55
2022/09/20 12:34:01;;;;;;;8.75;2.20;;;15.20;95.20;;;;;;5047904;28;20032;-57
2022/09/20 12:36:34;;;;;;;5.15;1.73;;;15.30;97.60;;;;;;5038206;28;20098;-57
2022/09/20 12:39:10;;;;;;;4.53;1.85;;;15.70;99.90;;;;;;5038277;28;20155;-59
2022/09/20 12:41:54;;;;;;;6.25;2.20;;;16.20;99.60;;;;;;5039264;28;20123;-59
2022/09/20 12:44:23;;;;;;;4.35;1.40;;;16.70;93.90;;;;;;5009852;28;20106;-61
2022/09/20 12:47:24;;;;;;;6.85;2.33;;;16.90;85.40;;;;;;5038200;28;20044;-57
2022/09/20 12:53:00;;;;;;;8.05;2.25;;;16.70;92.80;;;;;;5039717;28;20057;-60
2022/09/20 12:55:26;;;;;;;;;;;16.50;97.00;;;;;;5040129;28;20052;-58
2022/09/20 12:58:03;;;;;;;9.25;2.08;;;16.30;98.20;;;;;;5041914;28;20045;-60
2022/09/20 13:00:45;;;;;;;10.77;2.13;;;16.10;99.90;;;;;;5037073;28;20048;-59
2022/09/20 13:03:23;;;;;;;13.50;2.97;;;15.90;99.90;;;;;;5034710;28;20121;-62
2022/09/20 13:06:13;;;;;;;5.35;1.83;;;15.60;99.90;;;;;;5028666;28;20280;-62
2022/09/20 13:09:07;;;;;;;8.98;2.08;;;15.40;99.90;;;;;;5036641;28;20129;-59
2022/09/20 13:11:51;;;;;;;5.90;2.50;;;15.50;99.90;;;;;;5045896;28;20072;-61
2022/09/20 13:14:28;;;;;;;6.78;2.33;;;15.50;99.90;;;;;;5037698;28;20133;-58
2022/09/20 13:17:21;;;;;;;10.40;2.80;;;15.60;99.90;;;;;;5038971;28;20056;-63
2022/09/20 13:19:50;;;;;;;4.80;2.08;;;15.80;99.90;;;;;;5038246;28;20227;-58
2022/09/20 13:22:22;;;;;;;4.10;1.90;;;16.00;99.90;;;;;;5035859;28;20044;-59
2022/09/20 13:24:58;;;;;;;8.02;2.00;;;16.30;99.90;;;;;;5035609;28;20876;-59
2022/09/20 13:27:36;;;;;;;6.22;2.03;;;16.50;97.00;;;;;;5038026;28;20122;-58
2022/09/20 13:30:16;;;;;;;;;;;16.70;95.80;;;;;;5047038;28;20040;-59
2022/09/20 13:32:43;;;;;;;9.40;1.90;;;16.80;95.20;;;;;;5036716;28;19961;-58
2022/09/20 13:35:17;;;;;;;9.88;2.40;;;16.60;96.30;;;;;;5034559;28;20059;-59
2022/09/20 13:38:01;;;;;;;9.35;1.90;;;16.40;95.80;;;;;;5038214;28;20133;-58
2022/09/20 13:40:38;;;;;;;8.32;1.80;;;16.00;97.10;;;;;;5037583;28;20692;-58
2022/09/20 13:43:20;;;;;;;9.50;2.10;;;15.70;99.10;;;;;;5035565;28;20052;-58
2022/09/20 13:46:08;;;;;;;8.10;2.33;;;15.50;99.90;;;;;;5043487;28;20461;-57
2022/09/20 13:48:35;;;;;;;4.38;1.70;;;15.20;99.90;;;;;;5032449;28;20041;-57
2022/09/20 13:51:03;;;;;;;11.75;2.00;;;15.00;99.90;;;;;;5034714;28;20438;-56
2022/09/20 13:53:29;;;;;;;10.32;1.95;;;14.90;99.90;;;;;;5031916;28;20767;-57
2022/09/20 13:56:20;;;;;;;5.75;2.15;;;14.80;99.90;;;;;;5037677;28;20090;-55
2022/09/20 13:58:48;;;;;;;8.55;2.42;;;14.60;99.90;;;;;;5031367;28;20131;-55
2022/09/20 14:01:34;;;;;;;9.40;2.58;;;14.50;99.90;;;;;;5036617;28;20835;-56
2022/09/20 14:04:07;;;;;;;8.45;2.00;;;14.40;99.90;;;;;;5035419;28;20032;-55
2022/09/20 14:06:34;;;;;;;10.00;2.47;;;14.40;99.90;;;;;;5043362;28;20036;-56
2022/09/20 14:09:05;;;;;;;9.05;1.73;;;14.50;99.90;;;;;;5041620;28;20056;-62
2022/09/20 14:11:38;;;;;;;4.82;2.40;;;14.60;99.90;;;;;;5045799;28;20052;-56